createdAt,value
2022-08-21T00:00:55.734Z,21.02
2022-08-21T00:03:23.564Z,20.98
2022-08-21T00:05:52.791Z,20.95
2022-08-21T00:08:21.386Z,20.93
2022-08-21T00:10:49.888Z,20.94
2022-08-21T00:13:20.568Z,20.90
2022-08-21T00:15:51.178Z,20.91
2022-08-21T00:18:20.158Z,20.87
2022-08-21T00:20:48.796Z,20.86
2022-08-21T00:23:17.210Z,20.82
2022-08-21T00:25:46.147Z,20.82
2022-08-21T00:28:15.040Z,20.82
2022-08-21T00:30:44.301Z,20.75
2022-08-21T00:33:14.324Z,20.77
2022-08-21T00:35:43.854Z,20.74
2022-08-21T00:38:12.145Z,20.72
2022-08-21T00:40:43.718Z,20.71
2022-08-21T00:43:14.182Z,20.68
2022-08-21T00:45:41.894Z,20.64
2022-08-21T00:48:09.887Z,20.60
2022-08-21T00:50:44.013Z,20.65
2022-08-21T00:53:13.117Z,20.66
2022-08-21T00:55:41.990Z,20.62
2022-08-21T00:58:12.962Z,20.59
2022-08-21T05:01:48.460Z,19.18
2022-08-21T05:04:19.951Z,19.22
2022-08-21T05:06:49.506Z,19.25
2022-08-21T05:09:20.070Z,19.29
2022-08-21T05:11:49.682Z,19.32
2022-08-21T05:14:17.744Z,19.34
2022-08-21T05:16:45.784Z,19.30
2022-08-21T05:19:14.820Z,19.21
2022-08-21T05:21:45.828Z,19.24
2022-08-21T05:24:13.557Z,19.27
2022-08-21T05:26:46.362Z,19.32
2022-08-21T05:29:15.562Z,19.38
2022-08-21T05:31:44.235Z,19.42
2022-08-21T05:34:11.948Z,19.42
2022-08-21T05:36:45.517Z,19.35
2022-08-21T05:39:13.461Z,19.23
2022-08-21T05:41:41.034Z,19.25
2022-08-21T05:44:10.579Z,19.29
2022-08-21T05:46:39.509Z,19.37
2022-08-21T05:49:07.812Z,19.42
2022-08-21T05:51:36.176Z,19.43
2022-08-21T05:54:05.145Z,19.42
2022-08-21T05:56:32.782Z,19.44
2022-08-21T05:59:00.455Z,19.45
2022-08-21T06:01:28.770Z,19.39
2022-08-21T06:04:00.031Z,19.32
2022-08-21T06:06:29.241Z,19.37
2022-08-21T06:08:56.818Z,19.35
2022-08-21T06:11:28.862Z,19.31
2022-08-21T06:13:57.164Z,19.38
2022-08-21T06:16:24.990Z,19.43
2022-08-21T06:18:53.040Z,19.48
2022-08-21T06:21:21.163Z,19.47
2022-08-21T06:23:49.076Z,19.52
2022-08-21T06:26:16.879Z,19.57
2022-08-21T06:28:46.000Z,19.61
2022-08-21T06:31:16.163Z,19.62
2022-08-21T06:33:44.310Z,19.63
2022-08-21T06:36:12.153Z,19.70
2022-08-21T06:38:40.254Z,19.77
2022-08-21T06:41:08.939Z,19.77
2022-08-21T06:43:38.009Z,19.92
2022-08-21T06:46:09.284Z,20.07
2022-08-21T06:48:37.535Z,20.13
2022-08-21T06:51:05.444Z,20.16
2022-08-21T06:53:33.469Z,20.13
2022-08-21T06:56:02.701Z,20.12
2022-08-21T06:58:30.944Z,20.23
2022-08-21T07:01:01.342Z,20.32
2022-08-21T07:03:34.015Z,20.18
2022-08-21T07:06:01.655Z,20.33
2022-08-21T07:08:30.060Z,20.38
2022-08-21T07:11:00.400Z,20.41
2022-08-21T07:13:28.770Z,20.51
2022-08-21T07:16:00.277Z,20.62
2022-08-21T07:18:33.325Z,20.72
2022-08-21T07:21:02.595Z,20.71
2022-08-21T07:23:33.730Z,20.78
2022-08-21T07:26:02.292Z,20.90
2022-08-21T07:28:31.024Z,21.05
2022-08-21T07:31:00.610Z,21.09
2022-08-21T07:33:31.343Z,21.20
2022-08-21T07:36:00.558Z,21.18
2022-08-21T07:38:28.273Z,21.28
2022-08-21T07:40:59.742Z,21.40
2022-08-21T07:43:27.775Z,21.49
2022-08-21T07:45:56.268Z,21.60
2022-08-21T07:48:24.576Z,21.65
2022-08-21T07:50:52.891Z,21.72
2022-08-21T07:53:22.346Z,21.74
2022-08-21T07:55:50.098Z,21.84
2022-08-21T07:58:18.142Z,21.80
2022-08-21T08:00:45.813Z,21.84
2022-08-21T08:03:13.415Z,21.98
2022-08-21T08:05:42.931Z,22.09
2022-08-21T08:08:10.580Z,22.19
2022-08-21T08:10:40.220Z,22.26
2022-08-21T08:13:10.528Z,22.26
2022-08-21T08:15:38.872Z,22.27
2022-08-21T08:18:06.719Z,22.32
2022-08-21T08:20:34.510Z,22.40
2022-08-21T08:23:02.349Z,22.44
2022-08-21T08:25:32.773Z,22.47
2022-08-21T08:28:16.965Z,22.52
2022-08-21T08:30:45.800Z,22.53
2022-08-21T08:33:13.463Z,22.55
2022-08-21T08:35:48.528Z,22.51
2022-08-21T08:38:19.747Z,22.57
2022-08-21T08:40:55.567Z,22.67
2022-08-21T08:43:24.683Z,22.68
2022-08-21T08:45:56.500Z,22.54
2022-08-21T08:48:38.367Z,22.63
2022-08-21T08:51:10.670Z,22.67
2022-08-21T08:53:50.159Z,22.77
2022-08-21T08:56:23.304Z,22.83
2022-08-21T08:58:54.452Z,22.87
2022-08-21T09:01:22.439Z,22.89
2022-08-21T09:03:52.802Z,22.93
2022-08-21T09:06:30.042Z,23.02
2022-08-21T09:09:13.259Z,22.99
2022-08-21T09:11:50.576Z,22.96
2022-08-21T09:14:29.218Z,22.92
2022-08-21T09:17:03.669Z,22.90
2022-08-21T09:19:51.470Z,22.95
2022-08-21T09:22:25.490Z,23.04
2022-08-21T09:25:04.552Z,23.10
2022-08-21T09:27:33.715Z,23.11
2022-08-21T09:30:03.515Z,23.17
2022-08-21T09:32:37.861Z,23.18
2022-08-21T09:35:09.434Z,23.25
2022-08-21T09:37:49.311Z,23.33
2022-08-21T09:40:25.319Z,23.32
2022-08-21T09:42:57.786Z,23.32
2022-08-21T09:45:27.400Z,23.34
2022-08-21T09:48:11.850Z,23.37
2022-08-21T09:50:39.733Z,23.45
2022-08-21T09:53:18.397Z,23.40
2022-08-21T09:56:08.919Z,23.39
2022-08-21T09:58:38.868Z,23.37
2022-08-21T10:01:14.183Z,23.43
2022-08-21T10:03:42.103Z,23.48
2022-08-21T10:06:12.804Z,23.54
2022-08-21T10:08:43.026Z,23.57
2022-08-21T10:11:13.863Z,23.56
2022-08-21T10:13:52.019Z,23.56
2022-08-21T10:16:33.628Z,23.52
2022-08-21T10:19:21.979Z,23.50
2022-08-21T10:22:04.316Z,23.52
2022-08-21T10:24:35.248Z,23.55
2022-08-21T10:27:22.510Z,23.49
2022-08-21T10:29:57.718Z,23.54
2022-08-21T10:32:40.915Z,23.61
2022-08-21T10:35:15.049Z,23.63
2022-08-21T10:37:58.332Z,23.42
2022-08-21T10:40:33.648Z,23.34
2022-08-21T10:43:14.718Z,23.39
2022-08-21T10:45:53.623Z,23.46
2022-08-21T10:48:29.651Z,23.54
2022-08-21T10:51:06.477Z,23.54
2022-08-21T10:53:43.790Z,23.61
2022-08-21T10:56:17.844Z,23.68
2022-08-21T10:58:55.604Z,23.74
2022-08-21T11:01:29.882Z,23.81
2022-08-21T11:04:13.516Z,23.83
2022-08-21T11:06:52.343Z,23.78
2022-08-21T11:09:23.664Z,23.82
2022-08-21T11:11:59.303Z,23.87
2022-08-21T11:14:50.489Z,23.97
2022-08-21T11:17:27.188Z,23.95
2022-08-21T11:20:07.693Z,24.00
2022-08-21T11:22:42.224Z,24.05
2022-08-21T11:25:15.999Z,24.11
2022-08-21T11:27:48.404Z,24.17
2022-08-21T11:30:17.019Z,24.23
2022-08-21T11:32:59.575Z,24.27
2022-08-21T11:35:35.549Z,24.37
2022-08-21T11:38:21.541Z,24.42
2022-08-21T11:41:05.536Z,24.55
2022-08-21T11:43:40.516Z,24.52
2022-08-21T11:46:27.319Z,24.33
2022-08-21T11:49:06.377Z,24.28
2022-08-21T11:51:41.012Z,24.15
2022-08-21T11:54:17.833Z,24.07
2022-08-21T11:56:49.760Z,24.21
2022-08-21T11:59:22.631Z,24.43
2022-08-21T12:01:53.609Z,24.70
2022-08-21T12:04:27.021Z,25.01
2022-08-21T12:06:56.294Z,24.85
2022-08-21T12:09:35.270Z,24.84
2022-08-21T12:12:07.395Z,24.80
2022-08-21T12:14:41.444Z,24.62
2022-08-21T12:17:20.358Z,24.91
2022-08-21T12:20:01.506Z,25.23
2022-08-21T12:22:41.905Z,25.30
2022-08-21T12:25:12.571Z,25.43
2022-08-21T12:27:47.943Z,25.65
2022-08-21T12:30:34.536Z,25.85
2022-08-21T12:33:04.846Z,25.95
2022-08-21T12:35:44.494Z,25.87
2022-08-21T12:38:19.621Z,26.27
2022-08-21T12:40:52.182Z,26.37
2022-08-21T12:43:24.640Z,26.63
2022-08-21T12:45:53.394Z,26.80
2022-08-21T12:48:25.889Z,26.64
2022-08-21T12:50:57.514Z,26.59
2022-08-21T12:53:32.261Z,26.72
2022-08-21T12:56:04.551Z,26.94
2022-08-21T12:58:33.870Z,27.09
2022-08-21T13:01:06.602Z,27.26
2022-08-21T13:03:37.951Z,27.47
2022-08-21T13:06:07.311Z,27.48
2022-08-21T13:08:41.698Z,27.13
2022-08-21T13:11:14.854Z,27.25
2022-08-21T13:13:47.048Z,27.30
2022-08-21T13:16:24.457Z,26.98
2022-08-21T13:18:56.244Z,26.70
2022-08-21T13:21:30.498Z,26.71
2022-08-21T13:24:32.059Z,27.14
2022-08-21T13:27:03.189Z,27.48
2022-08-21T13:29:35.401Z,27.68
2022-08-21T13:32:08.797Z,27.82
2022-08-21T13:34:38.634Z,27.96
2022-08-21T13:37:10.218Z,28.10
2022-08-21T13:39:40.388Z,27.96
2022-08-21T13:42:14.964Z,28.08
2022-08-21T13:44:44.443Z,28.19
2022-08-21T13:47:14.459Z,28.34
2022-08-21T13:49:45.247Z,28.34
2022-08-21T13:52:18.480Z,28.40
2022-08-21T13:54:55.227Z,28.46
2022-08-21T13:57:27.890Z,28.41
2022-08-21T14:00:12.681Z,28.55
2022-08-21T14:02:42.686Z,28.67
2022-08-21T14:05:18.328Z,28.64
2022-08-21T14:07:47.924Z,28.73
2022-08-21T14:10:22.078Z,28.98
2022-08-21T14:12:53.135Z,29.09
2022-08-21T14:15:26.154Z,28.82
2022-08-21T14:17:54.198Z,28.77
2022-08-21T14:20:30.925Z,28.82
2022-08-21T14:22:58.843Z,28.96
2022-08-21T14:25:43.776Z,28.87
2022-08-21T14:28:28.087Z,28.67
2022-08-21T14:30:57.879Z,28.67
2022-08-21T14:33:29.645Z,28.67
2022-08-21T14:35:58.978Z,28.83
2022-08-21T14:38:29.025Z,28.99
2022-08-21T14:41:02.402Z,29.09
2022-08-21T14:43:30.663Z,29.02
2022-08-21T14:45:58.831Z,28.98
2022-08-21T14:48:26.452Z,29.01
2022-08-21T14:50:58.361Z,28.98
2022-08-21T14:53:27.480Z,29.07
2022-08-21T14:56:07.805Z,29.02
2022-08-21T14:58:40.079Z,28.82
2022-08-21T15:01:09.457Z,28.66
2022-08-21T15:03:37.566Z,28.43
2022-08-21T15:06:07.182Z,28.22
2022-08-21T15:08:38.406Z,28.01
2022-08-21T15:11:12.432Z,27.88
2022-08-21T15:13:43.861Z,27.84
2022-08-21T15:16:13.967Z,27.73
2022-08-21T15:18:43.691Z,27.66
2022-08-21T15:21:11.495Z,27.64
2022-08-21T15:23:39.711Z,27.57
2022-08-21T15:26:07.808Z,27.52
2022-08-21T15:28:37.699Z,27.43
2022-08-21T15:31:07.562Z,27.35
2022-08-21T15:33:35.687Z,27.15
2022-08-21T15:36:04.175Z,27.12
2022-08-21T15:38:31.977Z,27.11
2022-08-21T15:40:59.918Z,27.14
2022-08-21T15:43:31.030Z,27.08
2022-08-21T15:46:00.985Z,27.01
2022-08-21T15:48:30.923Z,26.97
2022-08-21T15:50:59.777Z,26.91
2022-08-21T15:53:27.663Z,26.86
2022-08-21T15:55:55.735Z,26.84
2022-08-21T15:58:23.848Z,26.74
2022-08-21T16:00:51.645Z,26.70
2022-08-21T16:03:22.574Z,26.63
2022-08-21T16:05:53.399Z,26.51
2022-08-21T16:08:21.581Z,26.52
2022-08-21T16:10:49.743Z,26.51
2022-08-21T16:13:25.616Z,26.53
2022-08-21T16:15:54.365Z,26.49
2022-08-21T16:18:23.884Z,26.51
2022-08-21T16:20:54.125Z,26.47
2022-08-21T16:23:22.664Z,26.44
2022-08-21T16:25:50.783Z,26.40
2022-08-21T16:28:20.905Z,26.39
2022-08-21T16:30:51.153Z,26.32
2022-08-21T16:33:34.985Z,26.32
2022-08-21T16:36:07.676Z,26.29
2022-08-21T16:38:38.155Z,26.29
2022-08-21T16:41:08.397Z,26.32
2022-08-21T16:43:36.582Z,26.32
2022-08-21T16:46:04.393Z,26.26
2022-08-21T16:48:32.187Z,26.23
2022-08-21T16:51:00.074Z,26.14
2022-08-21T16:53:29.107Z,26.12
2022-08-21T16:55:57.032Z,26.10
2022-08-21T16:58:28.064Z,26.12
2022-08-21T17:00:56.266Z,26.07
2022-08-21T17:03:30.604Z,25.99
2022-08-21T17:05:58.374Z,25.95
2022-08-21T17:08:26.203Z,25.96
2022-08-21T17:10:56.041Z,25.93
2022-08-21T17:13:24.226Z,25.91
2022-08-21T17:15:52.661Z,25.91
2022-08-21T17:18:24.030Z,25.88
2022-08-21T17:20:52.252Z,25.87
2022-08-21T17:23:20.769Z,25.84
2022-08-21T17:25:53.658Z,25.80
2022-08-21T17:28:26.532Z,25.74
2022-08-21T17:30:56.640Z,25.73
2022-08-21T17:33:25.871Z,25.72
2022-08-21T17:35:54.806Z,25.69
2022-08-21T17:38:22.510Z,25.65
2022-08-21T17:40:50.698Z,25.61
2022-08-21T17:43:18.750Z,25.51
2022-08-21T17:45:48.164Z,25.50
2022-08-21T17:48:15.992Z,25.48
2022-08-21T17:50:43.828Z,25.48
2022-08-21T17:53:11.648Z,25.46
2022-08-21T17:55:41.442Z,25.44
2022-08-21T17:58:10.358Z,25.41
2022-08-21T18:00:38.489Z,25.40
2022-08-21T18:03:14.685Z,25.37
2022-08-21T18:05:42.610Z,25.34
2022-08-21T18:08:10.621Z,25.30
2022-08-21T18:10:41.067Z,25.24
2022-08-21T18:13:12.039Z,25.22
2022-08-21T18:15:40.315Z,25.21
2022-08-21T18:18:13.515Z,25.21
2022-08-21T18:20:49.925Z,25.20
2022-08-21T18:23:43.245Z,25.20
2022-08-21T18:26:19.613Z,25.18
2022-08-21T18:28:50.750Z,25.14
2022-08-21T18:31:27.321Z,25.15
2022-08-21T18:34:20.971Z,25.15
2022-08-21T18:36:53.569Z,25.13
2022-08-21T18:39:36.317Z,25.10
2022-08-21T18:42:14.673Z,25.09
2022-08-21T18:44:48.901Z,25.08
2022-08-21T18:47:27.769Z,25.04
2022-08-21T18:50:13.258Z,25.02
2022-08-21T18:52:54.531Z,24.99
2022-08-21T18:56:06.551Z,24.97
2022-08-21T18:59:35.399Z,24.94
2022-08-21T19:02:11.474Z,24.87
2022-08-21T19:04:44.688Z,24.84
2022-08-21T19:07:15.077Z,24.64
2022-08-21T19:09:56.959Z,24.63
2022-08-21T19:12:33.438Z,24.67
2022-08-21T19:15:01.474Z,24.54
2022-08-21T19:17:30.798Z,24.54
2022-08-21T19:20:04.765Z,24.57
2022-08-21T19:22:33.840Z,24.59
2022-08-21T19:25:01.553Z,24.61
2022-08-21T19:27:29.850Z,24.57
2022-08-21T19:29:57.781Z,24.57
2022-08-21T19:32:28.777Z,24.60
2022-08-21T19:34:56.439Z,24.61
2022-08-21T19:37:25.976Z,24.62
2022-08-21T19:39:55.493Z,24.63
2022-08-21T19:42:25.058Z,24.61
2022-08-21T19:45:13.481Z,24.61
2022-08-21T19:47:46.450Z,24.60
2022-08-21T19:50:17.936Z,24.57
2022-08-21T19:52:51.624Z,24.57
2022-08-21T19:55:23.207Z,24.55
2022-08-21T19:57:51.477Z,24.53
2022-08-21T20:00:19.536Z,24.53
2022-08-21T20:02:48.129Z,24.47
2022-08-21T20:05:18.197Z,24.41
2022-08-21T20:07:46.542Z,24.40
2022-08-21T20:10:14.499Z,24.39
2022-08-21T20:12:47.060Z,24.37
2022-08-21T20:15:20.563Z,24.34
2022-08-21T20:17:48.821Z,24.38
2022-08-21T20:20:16.934Z,24.33
2022-08-21T20:22:44.549Z,24.31
2022-08-21T20:25:12.488Z,24.30
2022-08-21T20:27:42.869Z,24.29
2022-08-21T20:30:11.613Z,24.28
2022-08-21T20:32:39.740Z,24.27
2022-08-21T20:35:12.332Z,24.23
2022-08-21T20:37:41.338Z,24.18
2022-08-21T20:40:13.437Z,24.07
2022-08-21T20:42:47.191Z,24.07
2022-08-21T20:45:21.194Z,24.07
2022-08-21T20:47:52.671Z,24.02
2022-08-21T20:50:23.179Z,23.99
2022-08-21T20:52:54.275Z,23.97
2022-08-21T20:55:29.043Z,23.95
2022-08-21T20:58:04.675Z,23.97
2022-08-21T21:00:36.853Z,23.98
2022-08-21T21:03:10.631Z,23.99
2022-08-21T21:05:44.153Z,23.95
2022-08-21T21:08:19.591Z,23.87
2022-08-21T21:10:54.927Z,23.77
2022-08-21T21:13:30.032Z,23.70
2022-08-21T21:16:03.738Z,23.63
2022-08-21T21:18:37.372Z,23.58
2022-08-21T21:21:16.564Z,23.53
2022-08-21T21:23:50.449Z,23.45
2022-08-21T21:26:22.966Z,23.42
2022-08-21T21:29:09.929Z,23.38
2022-08-21T21:31:38.682Z,23.37
2022-08-21T21:34:06.569Z,23.36
2022-08-21T21:36:43.757Z,23.33
2022-08-21T21:39:17.958Z,23.21
2022-08-21T21:41:50.774Z,23.16
2022-08-21T21:44:47.656Z,23.15
2022-08-21T21:47:31.581Z,23.12
2022-08-21T21:50:07.481Z,23.07
2022-08-21T21:53:00.246Z,23.06
2022-08-21T21:55:47.777Z,23.03
2022-08-21T21:58:49.128Z,22.95
2022-08-21T22:01:27.545Z,22.91
2022-08-21T22:04:03.760Z,22.87
2022-08-21T22:06:40.424Z,22.76
2022-08-21T22:09:17.539Z,22.70
2022-08-21T22:11:58.831Z,22.63
2022-08-21T22:14:35.422Z,22.46
2022-08-21T22:17:10.224Z,22.40
2022-08-21T22:19:42.508Z,22.38
2022-08-21T22:22:15.931Z,22.30
2022-08-21T22:24:49.622Z,22.20
2022-08-21T22:27:22.541Z,22.02
2022-08-21T22:29:53.318Z,21.96
2022-08-21T22:32:30.340Z,21.89
2022-08-21T22:35:15.566Z,21.83
2022-08-21T22:37:47.671Z,21.88
2022-08-21T22:40:24.151Z,21.84
2022-08-21T22:43:02.862Z,21.80
2022-08-21T22:45:30.722Z,21.77
2022-08-21T22:48:11.290Z,21.74
2022-08-21T22:50:57.261Z,21.71
2022-08-21T22:53:29.512Z,21.68
2022-08-21T22:56:00.506Z,21.56
2022-08-21T22:58:30.653Z,21.49
